createdAt,value
2018-06-14T00:01:02.466Z,11.90
2018-06-14T00:03:34.423Z,11.90
2018-06-14T00:06:06.578Z,11.90
2018-06-14T00:08:38.976Z,11.90
2018-06-14T00:11:10.264Z,11.90
2018-06-14T00:13:42.594Z,11.90
2018-06-14T00:16:14.658Z,11.90
2018-06-14T00:18:46.516Z,11.90
2018-06-14T00:21:18.910Z,11.90
2018-06-14T00:23:51.324Z,11.90
2018-06-14T00:26:22.474Z,11.90
2018-06-14T00:28:53.956Z,11.90
2018-06-14T00:31:25.850Z,11.90
2018-06-14T00:33:57.902Z,11.90
2018-06-14T00:36:29.292Z,11.80
2018-06-14T00:39:00.553Z,11.90
2018-06-14T00:41:32.362Z,11.90
2018-06-14T00:44:04.812Z,11.90
2018-06-14T00:46:35.776Z,11.90
2018-06-14T00:49:07.423Z,11.90
2018-06-14T00:51:39.249Z,11.90
2018-06-14T00:54:10.687Z,11.90
2018-06-14T00:56:53.003Z,11.90
2018-06-14T00:59:24.677Z,11.80
2018-06-14T01:01:57.664Z,11.90
2018-06-14T01:04:29.331Z,11.80
2018-06-14T01:07:01.959Z,11.80
2018-06-14T01:09:33.923Z,11.80
2018-06-14T01:12:07.518Z,11.70
2018-06-14T01:14:38.563Z,11.70
2018-06-14T01:17:10.190Z,11.70
2018-06-14T01:19:42.030Z,11.70
2018-06-14T01:22:14.363Z,11.70
2018-06-14T01:24:45.997Z,11.70
2018-06-14T01:27:17.899Z,11.70
2018-06-14T01:29:49.790Z,11.60
2018-06-14T01:32:20.937Z,11.60
2018-06-14T01:34:54.803Z,11.60
2018-06-14T01:37:37.375Z,11.60
2018-06-14T01:40:09.258Z,11.60
2018-06-14T01:42:40.688Z,11.60
2018-06-14T01:45:11.839Z,11.60
2018-06-14T01:47:44.618Z,11.60
2018-06-14T01:50:15.740Z,11.60
2018-06-14T01:52:47.155Z,11.60
2018-06-14T01:55:19.126Z,11.60
2018-06-14T01:57:51.178Z,11.60
2018-06-14T02:00:22.606Z,11.60
2018-06-14T02:02:54.688Z,11.60
2018-06-14T02:05:27.385Z,11.60
2018-06-14T02:07:59.433Z,11.60
2018-06-14T02:10:31.821Z,11.60
2018-06-14T02:13:02.926Z,11.60
2018-06-14T02:15:34.831Z,11.60
2018-06-14T02:18:06.744Z,11.60
2018-06-14T02:20:38.179Z,11.60
2018-06-14T02:23:09.448Z,11.50
2018-06-14T02:25:41.224Z,11.50
2018-06-14T02:28:13.576Z,11.50
2018-06-14T02:30:44.751Z,11.50
2018-06-14T02:33:16.876Z,11.50
2018-06-14T02:35:49.390Z,11.50
2018-06-14T02:38:23.131Z,11.50
2018-06-14T02:40:55.288Z,11.50
2018-06-14T02:43:27.346Z,11.50
2018-06-14T02:46:00.782Z,11.50
2018-06-14T02:48:31.878Z,11.60
2018-06-14T02:51:03.077Z,11.60
2018-06-14T02:53:34.331Z,11.60
2018-06-14T02:56:06.356Z,11.60
2018-06-14T02:58:38.216Z,11.50
2018-06-14T03:01:16.514Z,11.60
2018-06-14T03:03:49.606Z,11.50
2018-06-14T03:06:21.126Z,11.60
2018-06-14T03:08:52.657Z,11.60
2018-06-14T03:11:24.615Z,11.60
2018-06-14T03:13:56.433Z,11.60
2018-06-14T03:16:27.602Z,11.60
2018-06-14T03:19:00.364Z,11.60
2018-06-14T03:21:32.183Z,11.60
2018-06-14T03:24:04.536Z,11.60
2018-06-14T03:26:36.774Z,11.70
2018-06-14T03:29:08.453Z,11.70
2018-06-14T03:31:41.811Z,11.70
2018-06-14T03:34:14.020Z,11.70
2018-06-14T03:36:45.491Z,11.70
2018-06-14T03:39:19.275Z,11.80
2018-06-14T03:41:51.461Z,11.80
2018-06-14T03:44:22.793Z,11.80
2018-06-14T03:46:54.071Z,11.80
2018-06-14T03:49:25.613Z,11.70
2018-06-14T03:51:57.784Z,11.70
2018-06-14T03:54:29.235Z,11.70
2018-06-14T03:57:02.520Z,11.70
2018-06-14T03:59:35.312Z,11.70
2018-06-14T04:02:07.711Z,11.70
2018-06-14T04:04:38.867Z,11.80
2018-06-14T04:07:12.089Z,11.70
2018-06-14T04:09:44.467Z,11.80
2018-06-14T04:12:15.619Z,11.80
2018-06-14T04:14:47.050Z,11.80
2018-06-14T04:17:19.425Z,11.90
2018-06-14T04:19:51.524Z,11.90
2018-06-14T04:22:22.985Z,11.90
2018-06-14T04:24:54.303Z,11.90
2018-06-14T04:27:26.443Z,11.90
2018-06-14T04:29:59.829Z,11.90
2018-06-14T04:32:31.100Z,11.90
2018-06-14T04:35:03.578Z,11.90
2018-06-14T04:37:35.774Z,11.90
2018-06-14T04:40:08.500Z,11.90
2018-06-14T04:42:39.980Z,12.00
2018-06-14T04:45:11.341Z,12.00
2018-06-14T04:47:43.470Z,11.90
2018-06-14T04:50:15.485Z,11.90
2018-06-14T04:52:53.823Z,12.00
2018-06-14T04:55:25.763Z,12.00
2018-06-14T04:57:58.740Z,12.00
2018-06-14T05:00:30.327Z,12.00
2018-06-14T05:03:02.608Z,12.00
2018-06-14T05:05:34.649Z,12.10
2018-06-14T05:08:06.782Z,12.10
2018-06-14T05:10:38.067Z,12.10
2018-06-14T05:13:09.646Z,12.10
2018-06-14T05:15:41.976Z,12.10
2018-06-14T05:18:13.392Z,12.10
2018-06-14T05:20:44.888Z,12.10
2018-06-14T05:23:17.758Z,12.20
2018-06-14T05:25:49.835Z,12.20
2018-06-14T05:28:22.316Z,12.30
2018-06-14T05:30:53.820Z,12.30
2018-06-14T05:33:25.998Z,12.40
2018-06-14T05:35:57.697Z,12.40
2018-06-14T05:38:29.261Z,12.40
2018-06-14T05:41:00.597Z,12.50
2018-06-14T05:43:33.463Z,12.60
2018-06-14T05:46:05.593Z,12.60
2018-06-14T05:48:37.216Z,12.60
2018-06-14T05:51:08.810Z,12.70
2018-06-14T05:53:41.075Z,12.80
2018-06-14T05:56:12.714Z,12.90
2018-06-14T05:58:44.343Z,13.00
2018-06-14T06:01:16.666Z,13.00
2018-06-14T06:03:48.904Z,13.10
2018-06-14T06:06:20.660Z,13.20
2018-06-14T06:08:52.346Z,13.30
2018-06-14T06:11:24.593Z,13.50
2018-06-14T06:13:57.532Z,13.60
2018-06-14T06:16:29.350Z,13.60
2018-06-14T06:19:00.786Z,13.70
2018-06-14T06:21:33.208Z,13.90
2018-06-14T06:24:05.425Z,14.00
2018-06-14T06:26:36.803Z,14.10
2018-06-14T06:29:08.178Z,14.20
2018-06-14T06:31:40.274Z,14.20
2018-06-14T06:34:12.808Z,14.40
2018-06-14T06:36:44.406Z,14.50
2018-06-14T06:39:16.078Z,14.60
2018-06-14T06:41:48.153Z,14.60
2018-06-14T06:44:19.795Z,14.60
2018-06-14T06:46:51.151Z,14.60
2018-06-14T06:49:23.802Z,14.60
2018-06-14T06:51:55.984Z,14.80
2018-06-14T06:54:27.333Z,14.80
2018-06-14T06:56:58.663Z,15.00
2018-06-14T06:59:30.677Z,15.30
2018-06-14T07:02:02.868Z,15.40
2018-06-14T07:04:34.682Z,15.50
2018-06-14T07:07:06.286Z,15.50
2018-06-14T07:09:39.339Z,15.40
2018-06-14T07:12:10.993Z,15.40
2018-06-14T07:14:42.517Z,15.50
2018-06-14T07:17:14.006Z,15.60
2018-06-14T07:19:46.213Z,15.60
2018-06-14T07:22:17.698Z,15.40
2018-06-14T07:24:49.189Z,15.20
2018-06-14T07:27:21.074Z,15.10
2018-06-14T07:29:53.198Z,15.20
2018-06-14T07:32:24.585Z,15.30
2018-06-14T07:34:56.308Z,15.30
2018-06-14T07:37:28.440Z,15.20
2018-06-14T07:40:00.444Z,15.20
2018-06-14T07:42:31.680Z,15.20
2018-06-14T07:45:03.066Z,15.20
2018-06-14T07:47:35.310Z,15.30
2018-06-14T07:50:07.630Z,15.30
2018-06-14T07:52:39.530Z,15.50
2018-06-14T07:55:10.894Z,15.60
2018-06-14T07:57:42.942Z,15.70
2018-06-14T08:00:14.320Z,15.90
2018-06-14T08:02:45.674Z,16.00
2018-06-14T08:05:18.315Z,16.20
2018-06-14T08:07:50.944Z,16.10
2018-06-14T08:10:29.003Z,16.20
2018-06-14T08:13:00.431Z,16.10
2018-06-14T08:15:32.716Z,16.00
2018-06-14T08:18:04.745Z,16.10
2018-06-14T08:20:38.008Z,16.00
2018-06-14T08:23:09.501Z,15.80
2018-06-14T08:25:41.596Z,15.80
2018-06-14T08:28:13.956Z,15.50
2018-06-14T08:30:45.618Z,15.30
2018-06-14T08:33:18.322Z,15.10
2018-06-14T08:35:51.036Z,15.00
2018-06-14T08:38:23.868Z,15.10
2018-06-14T08:40:55.441Z,15.20
2018-06-14T08:43:28.497Z,15.40
2018-06-14T08:46:08.151Z,15.60
2018-06-14T08:48:39.834Z,15.60
2018-06-14T08:51:13.463Z,15.50
2018-06-14T08:53:46.040Z,15.50
2018-06-14T08:56:17.590Z,15.50
2018-06-14T08:58:49.290Z,15.70
2018-06-14T09:01:21.880Z,15.80
2018-06-14T09:03:54.144Z,15.90
2018-06-14T09:06:25.720Z,16.10
2018-06-14T09:09:00.054Z,16.30
2018-06-14T09:11:32.814Z,16.30
2018-06-14T09:14:05.288Z,16.40
2018-06-14T09:16:36.522Z,16.30
2018-06-14T09:19:09.029Z,16.30
2018-06-14T09:21:42.020Z,16.50
2018-06-14T09:24:14.228Z,16.70
2018-06-14T09:26:48.228Z,16.50
2018-06-14T09:29:21.585Z,16.50
2018-06-14T09:31:53.710Z,16.50
2018-06-14T09:34:25.020Z,16.50
2018-06-14T09:36:57.022Z,16.70
2018-06-14T09:39:29.115Z,16.90
2018-06-14T09:42:01.494Z,17.00
2018-06-14T09:44:33.217Z,17.20
2018-06-14T09:47:05.117Z,17.40
2018-06-14T09:49:37.143Z,17.40
2018-06-14T09:52:09.306Z,17.50
2018-06-14T09:54:40.626Z,17.80
2018-06-14T09:57:12.828Z,17.60
2018-06-14T09:59:45.325Z,17.60
2018-06-14T10:02:18.426Z,17.40
2018-06-14T10:04:50.965Z,17.30
2018-06-14T10:07:23.552Z,17.40
2018-06-14T10:09:55.577Z,17.70
2018-06-14T10:12:27.175Z,17.80
2018-06-14T10:14:59.226Z,18.00
2018-06-14T10:17:31.942Z,18.20
2018-06-14T10:20:04.580Z,18.20
2018-06-14T10:22:36.226Z,18.30
2018-06-14T10:25:08.608Z,18.30
2018-06-14T10:27:41.550Z,18.30
2018-06-14T10:30:14.371Z,18.20
2018-06-14T10:32:46.955Z,18.10
2018-06-14T10:35:19.685Z,17.90
2018-06-14T10:37:52.402Z,17.90
2018-06-14T10:40:25.099Z,17.80
2018-06-14T10:42:57.174Z,18.00
2018-06-14T10:45:29.550Z,18.10
2018-06-14T10:48:02.764Z,18.30
2018-06-14T10:50:34.395Z,18.50
2018-06-14T10:53:07.594Z,18.80
2018-06-14T10:55:40.385Z,18.80
2018-06-14T10:58:13.262Z,19.00
2018-06-14T11:00:47.329Z,19.10
2018-06-14T11:03:20.460Z,19.20
2018-06-14T11:05:53.259Z,19.00
2018-06-14T11:08:24.464Z,18.90
2018-06-14T11:13:28.620Z,19.20
2018-06-14T11:16:01.407Z,19.20
2018-06-14T11:18:32.999Z,19.30
2018-06-14T11:21:04.942Z,19.40
2018-06-14T11:23:37.574Z,19.80
2018-06-14T11:26:09.924Z,20.20
2018-06-14T11:28:43.570Z,20.30
2018-06-14T11:31:15.376Z,19.90
2018-06-14T11:33:48.069Z,20.20
2018-06-14T11:36:20.653Z,20.40
2018-06-14T11:38:53.940Z,20.50
2018-06-14T11:41:26.373Z,20.40
2018-06-14T11:43:59.006Z,20.30
2018-06-14T11:49:03.752Z,20.20
2018-06-14T11:51:36.478Z,20.00
2018-06-14T11:54:09.819Z,19.50
2018-06-14T11:56:41.729Z,19.40
2018-06-14T11:59:14.257Z,19.50
2018-06-14T12:01:47.062Z,19.70
2018-06-14T12:04:19.434Z,19.80
2018-06-14T12:06:51.483Z,20.00
2018-06-14T12:09:24.098Z,20.60
2018-06-14T12:11:56.862Z,21.00
2018-06-14T12:14:28.958Z,21.40
2018-06-14T12:17:02.330Z,21.50
2018-06-14T12:19:35.859Z,21.50
2018-06-14T12:22:08.776Z,21.40
2018-06-14T12:24:41.587Z,21.60
2018-06-14T12:27:13.537Z,21.70
2018-06-14T12:29:46.768Z,21.50
2018-06-14T12:32:19.653Z,21.30
2018-06-14T12:34:53.820Z,21.40
2018-06-14T12:37:26.897Z,21.20
2018-06-14T12:40:01.070Z,21.10
2018-06-14T12:42:33.347Z,21.10
2018-06-14T12:45:05.734Z,20.30
2018-06-14T12:47:38.607Z,19.80
2018-06-14T12:50:11.532Z,19.70
2018-06-14T12:52:44.530Z,20.20
2018-06-14T12:55:17.688Z,20.90
2018-06-14T12:57:53.893Z,21.40
2018-06-14T13:00:33.349Z,21.70
2018-06-14T13:03:05.514Z,21.80
2018-06-14T13:05:39.195Z,22.30
2018-06-14T13:08:11.379Z,22.30
2018-06-14T13:10:44.039Z,22.10
2018-06-14T13:13:16.859Z,22.30
2018-06-14T13:15:49.609Z,21.60
2018-06-14T13:18:21.643Z,20.80
2018-06-14T13:20:54.795Z,20.30
2018-06-14T13:23:27.359Z,20.30
2018-06-14T13:26:00.040Z,20.60
2018-06-14T13:28:32.053Z,20.90
2018-06-14T13:31:04.363Z,21.20
2018-06-14T13:33:37.841Z,21.60
2018-06-14T13:36:10.841Z,21.90
2018-06-14T13:38:43.857Z,22.30
2018-06-14T13:41:16.693Z,22.30
2018-06-14T13:43:49.181Z,21.90
2018-06-14T13:46:21.732Z,22.20
2018-06-14T13:48:53.730Z,22.50
2018-06-14T13:51:26.559Z,22.60
2018-06-14T13:53:59.285Z,22.60
2018-06-14T13:56:31.301Z,22.50
2018-06-14T13:59:03.490Z,22.20
2018-06-14T14:01:36.427Z,21.50
2018-06-14T14:04:10.448Z,20.70
2018-06-14T14:06:42.479Z,20.30
2018-06-14T14:09:14.529Z,20.00
2018-06-14T14:11:47.773Z,19.90
2018-06-14T14:14:19.961Z,20.30
2018-06-14T14:16:52.065Z,20.90
2018-06-14T14:19:24.866Z,21.10
2018-06-14T14:21:57.793Z,21.30
2018-06-14T14:24:29.745Z,21.30
2018-06-14T14:27:01.839Z,21.20
2018-06-14T14:29:34.436Z,21.10
2018-06-14T14:32:08.163Z,20.70
2018-06-14T14:34:40.285Z,20.50
2018-06-14T14:37:12.336Z,20.40
2018-06-14T14:39:45.541Z,20.30
2018-06-14T14:42:17.609Z,20.30
2018-06-14T14:44:49.571Z,20.10
2018-06-14T14:47:22.171Z,20.00
2018-06-14T14:49:55.775Z,20.00
2018-06-14T14:52:30.475Z,19.90
2018-06-14T14:55:03.379Z,19.40
2018-06-14T14:57:38.594Z,19.20
2018-06-14T15:00:11.397Z,19.10
2018-06-14T15:02:43.293Z,19.10
2018-06-14T15:05:16.611Z,19.00
2018-06-14T15:07:49.371Z,19.00
2018-06-14T15:10:21.181Z,19.30
2018-06-14T15:12:53.122Z,19.50
2018-06-14T15:15:25.839Z,19.60
2018-06-14T15:17:59.263Z,20.00
2018-06-14T15:20:31.075Z,20.50
2018-06-14T15:23:03.179Z,20.70
2018-06-14T15:25:35.944Z,20.70
2018-06-14T15:28:09.124Z,20.60
2018-06-14T15:30:41.266Z,20.50
2018-06-14T15:33:13.373Z,20.30
2018-06-14T15:35:46.327Z,20.10
2018-06-14T15:38:20.554Z,19.90
2018-06-14T15:40:52.653Z,19.70
2018-06-14T15:43:25.327Z,19.70
2018-06-14T15:45:57.999Z,19.70
2018-06-14T15:48:30.270Z,19.50
2018-06-14T15:51:04.978Z,19.20
2018-06-14T15:53:38.229Z,19.30
2018-06-14T15:56:25.831Z,19.20
2018-06-14T15:58:57.779Z,19.10
2018-06-14T16:01:30.917Z,19.00
2018-06-14T16:04:04.570Z,19.00
2018-06-14T16:06:36.676Z,19.10
2018-06-14T16:09:10.837Z,19.10
2018-06-14T16:11:43.504Z,19.30
2018-06-14T16:14:17.294Z,19.40
2018-06-14T16:16:49.402Z,19.20
2018-06-14T16:19:22.094Z,19.30
2018-06-14T16:21:55.034Z,19.30
2018-06-14T16:24:27.192Z,19.30
2018-06-14T16:26:59.192Z,19.20
2018-06-14T16:29:32.112Z,19.10
2018-06-14T16:32:05.278Z,19.10
2018-06-14T16:34:37.306Z,19.00
2018-06-14T16:37:09.506Z,19.00
2018-06-14T16:39:42.105Z,18.80
2018-06-14T16:42:14.944Z,18.70
2018-06-14T16:44:46.985Z,18.70
2018-06-14T16:47:20.005Z,18.60
2018-06-14T16:49:52.690Z,18.60
2018-06-14T16:52:24.720Z,18.60
2018-06-14T16:54:56.462Z,18.60
2018-06-14T16:57:29.635Z,18.60
2018-06-14T17:00:03.202Z,18.50
2018-06-14T17:02:35.300Z,18.50
2018-06-14T17:05:08.068Z,18.40
2018-06-14T17:07:41.134Z,18.40
2018-06-14T17:10:13.590Z,18.40
2018-06-14T17:12:45.532Z,18.40
2018-06-14T17:15:18.193Z,18.40
2018-06-14T17:17:51.799Z,18.40
2018-06-14T17:20:24.233Z,18.40
2018-06-14T17:22:56.211Z,18.30
2018-06-14T17:25:29.467Z,18.30
2018-06-14T17:28:02.899Z,18.30
2018-06-14T17:30:36.061Z,18.30
2018-06-14T17:33:09.265Z,18.30
2018-06-14T17:35:41.883Z,18.20
2018-06-14T17:38:14.595Z,18.10
2018-06-14T17:40:47.473Z,18.20
2018-06-14T17:43:20.115Z,18.20
2018-06-14T17:45:53.272Z,18.20
2018-06-14T17:48:25.857Z,18.20
2018-06-14T17:50:58.061Z,18.10
2018-06-14T17:53:30.739Z,18.10
2018-06-14T17:56:03.859Z,18.10
2018-06-14T17:58:35.325Z,18.00
2018-06-14T18:01:07.687Z,17.90
2018-06-14T18:03:46.249Z,17.80
2018-06-14T18:06:18.418Z,17.80
2018-06-14T18:08:51.022Z,17.70
2018-06-14T18:11:23.143Z,17.70
2018-06-14T18:13:55.395Z,17.70
2018-06-14T18:16:29.017Z,17.60
2018-06-14T18:19:02.516Z,17.60
2018-06-14T18:21:35.198Z,17.50
2018-06-14T18:24:08.127Z,17.40
2018-06-14T18:26:40.453Z,17.30
2018-06-14T18:29:13.054Z,17.20
2018-06-14T18:31:49.714Z,17.00
2018-06-14T18:34:22.786Z,16.90
2018-06-14T18:36:55.064Z,16.70
2018-06-14T18:39:27.283Z,16.50
2018-06-14T18:42:00.263Z,16.30
2018-06-14T18:44:33.335Z,16.10
2018-06-14T18:47:06.188Z,15.90
2018-06-14T18:49:39.237Z,15.70
2018-06-14T18:52:10.765Z,15.60
2018-06-14T18:54:44.612Z,15.40
2018-06-14T18:57:17.777Z,15.20
2018-06-14T18:59:52.153Z,15.00
2018-06-14T19:02:23.703Z,14.80
2018-06-14T19:04:56.271Z,14.70
2018-06-14T19:07:28.868Z,14.50
2018-06-14T19:10:01.056Z,14.40
2018-06-14T19:12:32.995Z,14.20
2018-06-14T19:15:05.204Z,14.00
2018-06-14T19:17:37.722Z,13.90
2018-06-14T19:20:09.896Z,13.80
2018-06-14T19:22:41.915Z,13.70
2018-06-14T19:25:14.587Z,13.50
2018-06-14T19:27:46.796Z,13.40
2018-06-14T19:30:18.335Z,13.30
2018-06-14T19:32:49.980Z,13.20
2018-06-14T19:35:22.999Z,13.00
2018-06-14T19:37:55.676Z,12.90
2018-06-14T19:40:28.764Z,12.70
2018-06-14T19:43:00.690Z,12.60
2018-06-14T19:45:32.942Z,12.40
2018-06-14T19:48:05.157Z,12.30
2018-06-14T19:50:36.854Z,12.20
2018-06-14T19:53:08.524Z,12.10
2018-06-14T19:55:41.892Z,12.00
2018-06-14T19:58:13.975Z,11.90
2018-06-14T20:00:45.115Z,11.80
2018-06-14T20:03:17.372Z,11.80
2018-06-14T20:05:49.887Z,11.70
2018-06-14T20:08:21.388Z,11.60
2018-06-14T20:10:53.333Z,11.50
2018-06-14T20:13:25.530Z,11.40
2018-06-14T20:15:57.467Z,11.30
2018-06-14T20:18:29.071Z,11.20
2018-06-14T20:21:00.692Z,11.20
2018-06-14T20:23:33.471Z,11.10
2018-06-14T20:26:07.068Z,11.00
2018-06-14T20:28:39.017Z,11.00
2018-06-14T20:31:10.567Z,10.90
2018-06-14T20:33:42.759Z,10.80
2018-06-14T20:36:15.413Z,10.80
2018-06-14T20:38:47.409Z,10.70
2018-06-14T20:41:19.721Z,10.60
2018-06-14T20:43:52.334Z,10.60
2018-06-14T20:46:24.837Z,10.50
2018-06-14T20:48:56.382Z,10.50
2018-06-14T20:51:28.743Z,10.40
2018-06-14T20:54:01.215Z,10.40
2018-06-14T20:56:32.529Z,10.30
2018-06-14T20:59:04.000Z,10.20
2018-06-14T21:01:36.186Z,10.20
2018-06-14T21:04:08.432Z,10.20
2018-06-14T21:06:40.065Z,10.10
2018-06-14T21:09:11.727Z,10.00
2018-06-14T21:11:44.013Z,9.90
2018-06-14T21:14:15.461Z,9.90
2018-06-14T21:16:46.781Z,9.80
2018-06-14T21:19:20.389Z,9.80
2018-06-14T21:21:52.669Z,9.80
2018-06-14T21:24:24.337Z,9.70
2018-06-14T21:26:56.007Z,9.70
2018-06-14T21:29:29.300Z,9.60
2018-06-14T21:32:01.892Z,9.60
2018-06-14T21:34:33.384Z,9.40
2018-06-14T21:37:05.279Z,9.30
2018-06-14T21:39:37.279Z,9.30
2018-06-14T21:42:09.422Z,9.30
2018-06-14T21:44:40.853Z,9.30
2018-06-14T21:47:12.206Z,9.30
2018-06-14T21:49:44.260Z,9.20
2018-06-14T21:52:16.129Z,9.20
2018-06-14T21:54:47.503Z,9.30
2018-06-14T21:57:19.903Z,9.30
2018-06-14T21:59:52.773Z,9.30
2018-06-14T22:02:24.187Z,9.20
2018-06-14T22:04:55.362Z,9.20
2018-06-14T22:07:27.296Z,9.10
2018-06-14T22:09:59.150Z,9.10
2018-06-14T22:12:30.554Z,9.10
2018-06-14T22:15:01.600Z,9.00
2018-06-14T22:17:33.516Z,9.00
2018-06-14T22:20:06.144Z,9.00
2018-06-14T22:22:52.102Z,8.90
2018-06-14T22:25:24.018Z,8.90
2018-06-14T22:27:55.962Z,8.90
2018-06-14T22:30:27.310Z,8.90
2018-06-14T22:33:09.170Z,8.90
2018-06-14T22:35:41.215Z,8.80
2018-06-14T22:38:13.489Z,8.70
2018-06-14T22:40:45.210Z,8.70
2018-06-14T22:43:17.210Z,8.60
2018-06-14T22:45:49.560Z,8.60
2018-06-14T22:48:20.961Z,8.70
2018-06-14T22:51:03.011Z,8.70
2018-06-14T22:53:36.121Z,8.70
2018-06-14T22:56:09.612Z,8.60
2018-06-14T22:58:41.397Z,8.60
2018-06-14T23:01:49.275Z,8.60
2018-06-14T23:04:23.355Z,8.60
2018-06-14T23:06:55.728Z,8.50
2018-06-14T23:10:43.765Z,8.50
2018-06-14T23:13:18.900Z,8.40
2018-06-14T23:15:50.840Z,8.40
2018-06-14T23:18:22.157Z,8.40
2018-06-14T23:20:53.935Z,8.30
2018-06-14T23:23:26.674Z,8.30
2018-06-14T23:25:58.603Z,8.40
2018-06-14T23:28:29.894Z,8.30
2018-06-14T23:31:01.230Z,8.30
2018-06-14T23:33:33.313Z,8.30
2018-06-14T23:36:05.222Z,8.30
2018-06-14T23:38:36.591Z,8.20
2018-06-14T23:41:07.910Z,8.10
2018-06-14T23:43:39.919Z,8.10
2018-06-14T23:46:11.475Z,8.10
2018-06-14T23:48:42.809Z,8.10
2018-06-14T23:51:14.037Z,8.10
2018-06-14T23:53:46.094Z,8.20
2018-06-14T23:56:17.327Z,8.20
2018-06-14T23:58:48.814Z,8.20
